Time;durP1;ratioP1;P1;durP2;ratioP2;P2;SDS_P1;SDS_P2;PMS_P1;PMS_P2;Temp;Humidity;BMP_temperature;BMP_pressure;BME280_temperature;BME280_humidity;BME280_pressure;Samples;Min_cycle;Max_cycle;Signal;HPM_P1;HPM_P2
2022/09/14 00:00:15;;;;;;;0.43;0.40;;;21.60;60.00;;;;;;6215269;28;20112;-72
2022/09/14 00:03:17;;;;;;;0.73;0.47;;;21.60;60.10;;;;;;6214454;28;20434;-72
2022/09/14 00:06:17;;;;;;;0.63;0.57;;;21.60;60.10;;;;;;6216119;28;20487;-72
2022/09/14 00:09:21;;;;;;;0.50;0.40;;;21.60;60.10;;;;;;6213473;28;20034;-72
2022/09/14 00:12:23;;;;;;;1.50;0.60;;;21.60;60.00;;;;;;6214340;28;20525;-72
2022/09/14 00:15:24;;;;;;;0.65;0.50;;;21.60;60.00;;;;;;6214111;28;20109;-72
2022/09/14 00:18:24;;;;;;;0.60;0.40;;;21.60;60.00;;;;;;6214107;28;20036;-72
2022/09/14 00:21:26;;;;;;;1.08;0.50;;;21.60;60.00;;;;;;6215687;28;20062;-73
2022/09/14 00:24:31;;;;;;;0.60;0.60;;;21.60;60.00;;;;;;6224708;28;20567;-72
2022/09/14 00:27:32;;;;;;;;;;;21.60;60.00;;;;;;6218477;28;20022;-72
2022/09/14 00:30:32;;;;;;;0.60;0.60;;;21.60;60.00;;;;;;6218509;28;19932;-72
2022/09/14 00:33:33;;;;;;;1.30;0.60;;;21.60;60.00;;;;;;6218074;28;20057;-73
2022/09/14 00:36:40;;;;;;;0.88;0.50;;;21.60;60.00;;;;;;6218430;28;20492;-72
2022/09/14 00:39:40;;;;;;;0.60;0.57;;;21.60;60.00;;;;;;6218248;28;20610;-72
2022/09/14 00:42:41;;;;;;;0.77;0.50;;;21.60;60.00;;;;;;6217822;28;20062;-72
2022/09/14 00:45:42;;;;;;;1.30;0.50;;;21.60;60.00;;;;;;6218295;28;20100;-72
2022/09/14 00:48:42;;;;;;;0.63;0.40;;;21.60;59.90;;;;;;6218477;28;20051;-72
2022/09/14 00:51:53;;;;;;;0.55;0.50;;;21.60;60.00;;;;;;6219537;28;20510;-72
2022/09/14 00:55:06;;;;;;;0.70;0.50;;;21.60;59.90;;;;;;6218237;28;20030;-72
2022/09/14 00:58:06;;;;;;;0.40;0.40;;;21.60;59.90;;;;;;6218106;28;20030;-72
2022/09/14 01:01:08;;;;;;;0.50;0.40;;;21.60;59.90;;;;;;6218094;28;20094;-72
2022/09/14 01:04:09;;;;;;;0.52;0.52;;;21.60;59.90;;;;;;6217479;28;20376;-72
2022/09/14 01:07:51;;;;;;;0.50;0.40;;;21.60;60.00;;;;;;6217552;28;20056;-72
2022/09/14 01:11:09;;;;;;;0.60;0.40;;;21.60;60.00;;;;;;6290706;28;20034;-72
2022/09/14 01:14:40;;;;;;;0.95;0.40;;;21.60;60.00;;;;;;6217064;28;20032;-72
2022/09/14 01:17:57;;;;;;;0.70;0.43;;;21.60;59.90;;;;;;6218360;28;20033;-72
2022/09/14 01:21:05;;;;;;;0.40;0.40;;;21.60;60.00;;;;;;6217486;28;20450;-72
2022/09/14 01:24:14;;;;;;;0.68;0.50;;;21.60;60.10;;;;;;6217376;28;20119;-72
2022/09/14 01:27:24;;;;;;;0.30;0.30;;;21.60;60.10;;;;;;6217444;28;20057;-72
2022/09/14 01:30:27;;;;;;;0.95;0.50;;;21.60;60.20;;;;;;6217448;28;20026;-72
2022/09/14 01:33:33;;;;;;;0.68;0.50;;;21.60;60.20;;;;;;6215716;28;20026;-72
2022/09/14 01:36:37;;;;;;;0.40;0.40;;;21.60;60.00;;;;;;6217540;28;20029;-72
2022/09/14 01:39:47;;;;;;;0.73;0.43;;;21.60;60.00;;;;;;6216925;28;20037;-72
2022/09/14 01:42:53;;;;;;;0.40;0.30;;;21.60;60.20;;;;;;6217012;28;20130;-72
2022/09/14 01:45:59;;;;;;;0.60;0.45;;;21.60;60.00;;;;;;6216779;28;20492;-72
2022/09/14 01:49:12;;;;;;;0.47;0.40;;;21.60;60.20;;;;;;6216801;28;20472;-72
2022/09/14 01:52:18;;;;;;;0.32;0.30;;;21.60;60.00;;;;;;6217400;28;20395;-72
2022/09/14 01:55:26;;;;;;;0.50;0.40;;;21.60;60.00;;;;;;6216292;28;20549;-72
2022/09/14 01:58:26;;;;;;;0.77;0.50;;;21.60;60.00;;;;;;6216629;28;20036;-72
2022/09/14 02:01:33;;;;;;;0.57;0.50;;;21.60;60.00;;;;;;6217745;28;20018;-72
2022/09/14 02:04:52;;;;;;;0.40;0.40;;;21.60;60.00;;;;;;6216395;28;20022;-72
2022/09/14 02:07:54;;;;;;;0.60;0.50;;;21.60;60.20;;;;;;6223464;28;20029;-72
2022/09/14 02:10:56;;;;;;;0.75;0.50;;;21.60;60.30;;;;;;6222067;28;20033;-72
2022/09/14 02:13:56;;;;;;;0.85;0.50;;;21.60;60.10;;;;;;6217131;28;20026;-72
2022/09/14 02:16:57;;;;;;;0.50;0.40;;;21.60;60.00;;;;;;6216474;28;20026;-72
2022/09/14 02:20:00;;;;;;;0.50;0.50;;;21.60;60.00;;;;;;6216123;28;20091;-73
2022/09/14 02:23:01;;;;;;;0.40;0.40;;;21.60;60.20;;;;;;6215640;28;20547;-72
2022/09/14 02:26:02;;;;;;;0.80;0.52;;;21.60;60.10;;;;;;6216472;28;20537;-72
2022/09/14 02:29:03;;;;;;;0.65;0.50;;;21.60;60.10;;;;;;6215958;28;20112;-72
2022/09/14 02:32:27;;;;;;;0.85;0.60;;;21.60;60.20;;;;;;6216519;28;20055;-72
2022/09/14 02:36:06;;;;;;;0.40;0.40;;;21.60;60.00;;;;;;6216793;28;20076;-72
2022/09/14 02:39:59;;;;;;;0.50;0.50;;;21.60;60.20;;;;;;6245978;28;20500;-72
2022/09/14 02:43:08;;;;;;;0.40;0.40;;;21.60;60.10;;;;;;6243716;28;20060;-72
2022/09/14 02:46:11;;;;;;;0.50;0.50;;;21.50;60.00;;;;;;6265633;28;20033;-72
2022/09/14 02:49:33;;;;;;;0.45;0.45;;;21.60;60.20;;;;;;6266587;28;20060;-72
2022/09/14 02:52:55;;;;;;;0.30;0.30;;;21.60;60.30;;;;;;6248594;28;20458;-72
2022/09/14 02:56:02;;;;;;;0.70;0.60;;;21.60;60.10;;;;;;6265182;28;20087;-72
2022/09/14 02:59:04;;;;;;;0.38;0.38;;;21.60;60.20;;;;;;6266106;28;20387;-72
2022/09/14 03:02:04;;;;;;;0.52;0.40;;;21.60;60.00;;;;;;6264861;28;20483;-72
2022/09/14 03:05:05;;;;;;;0.77;0.50;;;21.60;60.20;;;;;;6265148;28;20083;-72
2022/09/14 03:08:06;;;;;;;0.60;0.50;;;21.60;60.10;;;;;;6266851;28;20621;-72
2022/09/14 03:11:07;;;;;;;0.60;0.40;;;21.50;60.00;;;;;;6265308;28;20033;-73
2022/09/14 03:14:09;;;;;;;0.52;0.50;;;21.60;60.20;;;;;;6265279;28;20104;-72
2022/09/14 03:17:10;;;;;;;1.65;0.70;;;21.60;60.20;;;;;;6219647;28;20038;-72
2022/09/14 03:20:11;;;;;;;0.50;0.40;;;21.50;60.00;;;;;;6215138;28;20034;-72
2022/09/14 03:23:12;;;;;;;0.52;0.50;;;21.60;60.20;;;;;;6215277;28;20152;-72
2022/09/14 03:26:16;;;;;;;1.00;0.63;;;21.60;60.20;;;;;;6215724;28;20525;-72
2022/09/14 03:29:16;;;;;;;1.10;0.50;;;21.60;60.20;;;;;;6223194;28;20095;-73
2022/09/14 03:32:17;;;;;;;0.63;0.50;;;21.60;60.10;;;;;;6215484;28;20494;-71
2022/09/14 03:35:18;;;;;;;0.60;0.40;;;21.50;60.00;;;;;;6215046;28;20022;-72
2022/09/14 03:38:20;;;;;;;0.30;0.30;;;21.60;60.00;;;;;;6215185;28;20026;-72
2022/09/14 03:41:22;;;;;;;0.55;0.55;;;21.50;60.00;;;;;;6214745;28;20057;-72
2022/09/14 03:44:22;;;;;;;0.65;0.50;;;21.60;60.00;;;;;;6214816;28;20505;-72
2022/09/14 03:47:23;;;;;;;0.73;0.40;;;21.50;60.00;;;;;;6213160;28;20037;-72
2022/09/14 03:50:24;;;;;;;1.23;0.47;;;21.60;60.00;;;;;;6214365;28;20609;-72
2022/09/14 03:53:24;;;;;;;0.43;0.30;;;21.50;59.90;;;;;;6215152;28;20086;-72
2022/09/14 03:56:25;;;;;;;0.93;0.50;;;21.60;60.10;;;;;;6213466;28;20403;-72
2022/09/14 03:59:26;;;;;;;0.40;0.40;;;21.50;60.00;;;;;;6214528;28;20030;-73
2022/09/14 04:02:28;;;;;;;0.30;0.30;;;21.60;60.00;;;;;;6214491;28;20033;-72
2022/09/14 04:05:29;;;;;;;0.65;0.43;;;21.50;59.90;;;;;;6214273;28;20382;-72
2022/09/14 04:08:30;;;;;;;0.40;0.32;;;21.60;60.00;;;;;;6214336;28;20214;-72
2022/09/14 04:11:32;;;;;;;0.50;0.50;;;21.60;60.10;;;;;;6215125;28;20426;-72
2022/09/14 04:14:33;;;;;;;0.50;0.45;;;21.50;59.90;;;;;;6215821;28;20089;-72
2022/09/14 04:17:34;;;;;;;0.40;0.40;;;21.50;59.90;;;;;;6215797;28;20026;-72
2022/09/14 04:20:35;;;;;;;0.30;0.30;;;21.50;59.90;;;;;;6215690;28;20057;-72
2022/09/14 04:23:35;;;;;;;0.60;0.45;;;21.50;60.00;;;;;;6214257;28;20021;-72
2022/09/14 04:26:36;;;;;;;0.30;0.30;;;21.50;59.90;;;;;;6214695;28;20018;-72
2022/09/14 04:29:37;;;;;;;0.57;0.50;;;21.60;60.20;;;;;;6215739;28;20022;-72
2022/09/14 04:32:37;;;;;;;1.52;0.60;;;21.50;59.70;;;;;;6214937;28;20030;-72
2022/09/14 04:35:38;;;;;;;0.40;0.40;;;21.50;60.00;;;;;;6215587;28;20026;-72
2022/09/14 04:38:40;;;;;;;0.38;0.30;;;21.50;59.90;;;;;;6215576;28;20109;-72
2022/09/14 04:41:41;;;;;;;0.30;0.30;;;21.60;60.00;;;;;;6214399;28;20380;-73
2022/09/14 04:44:41;;;;;;;0.38;0.38;;;21.50;60.00;;;;;;6214815;28;20057;-72
2022/09/14 04:47:42;;;;;;;1.55;0.52;;;21.50;60.00;;;;;;6215411;28;20067;-72
2022/09/14 04:50:43;;;;;;;0.73;0.50;;;21.50;59.90;;;;;;6214129;28;20030;-75
2022/09/14 04:53:45;;;;;;;0.73;0.50;;;21.50;59.90;;;;;;6215231;28;20022;-72
2022/09/14 04:56:46;;;;;;;1.17;0.40;;;21.50;60.00;;;;;;6215373;28;20049;-72
2022/09/14 05:00:43;;;;;;;0.45;0.40;;;21.50;60.00;;;;;;6215410;28;20037;-72
2022/09/14 05:03:43;;;;;;;;;;;21.50;59.90;;;;;;6205891;28;20451;-72
2022/09/14 05:06:44;;;;;;;0.60;0.35;;;21.50;59.80;;;;;;6214806;28;19917;-72
2022/09/14 05:09:45;;;;;;;0.52;0.40;;;21.50;59.80;;;;;;6219322;28;20057;-72
2022/09/14 05:12:45;;;;;;;0.50;0.32;;;21.50;59.90;;;;;;6218061;28;20045;-72
2022/09/14 05:15:46;;;;;;;1.55;0.60;;;21.50;60.00;;;;;;6217432;28;20022;-72
2022/09/14 05:18:48;;;;;;;0.95;0.40;;;21.50;59.80;;;;;;6217978;28;20026;-72
2022/09/14 05:21:48;;;;;;;0.50;0.35;;;21.60;60.00;;;;;;6217609;28;20526;-72
2022/09/14 05:24:49;;;;;;;0.63;0.40;;;21.50;59.80;;;;;;6219315;28;20022;-72
2022/09/14 05:27:49;;;;;;;0.40;0.40;;;21.50;59.70;;;;;;6217693;28;20491;-72
2022/09/14 05:30:50;;;;;;;0.40;0.30;;;21.50;59.80;;;;;;6217547;28;20094;-72
2022/09/14 05:33:52;;;;;;;0.43;0.40;;;21.50;59.90;;;;;;6217473;28;20294;-72
2022/09/14 05:36:52;;;;;;;0.93;0.60;;;21.50;59.90;;;;;;6217262;28;20030;-72
2022/09/14 05:39:53;;;;;;;0.80;0.50;;;21.50;59.90;;;;;;6217251;28;20034;-72
2022/09/14 05:42:53;;;;;;;0.45;0.45;;;21.50;59.80;;;;;;6217043;28;20085;-72
2022/09/14 05:45:54;;;;;;;0.63;0.50;;;21.50;59.90;;;;;;6216620;28;20468;-72
2022/09/14 05:48:55;;;;;;;0.30;0.30;;;21.50;59.80;;;;;;6217112;28;20444;-72
2022/09/14 05:51:56;;;;;;;0.77;0.40;;;21.50;59.90;;;;;;6215897;28;20037;-72
2022/09/14 05:54:56;;;;;;;0.30;0.30;;;21.50;59.90;;;;;;6218593;28;20708;-72
2022/09/14 05:57:57;;;;;;;1.15;0.57;;;21.50;59.80;;;;;;6218353;28;20029;-72
2022/09/14 06:00:58;;;;;;;1.08;0.32;;;21.50;59.80;;;;;;6213233;28;20137;-72
2022/09/14 06:04:03;;;;;;;0.70;0.40;;;21.50;59.70;;;;;;6205582;28;20106;-72
2022/09/14 06:07:03;;;;;;;;;;;21.50;60.60;;;;;;6220697;28;20049;-72
2022/09/14 06:10:04;;;;;;;0.43;0.30;;;21.50;59.90;;;;;;6215936;28;20274;-73
2022/09/14 06:13:05;;;;;;;0.40;0.38;;;21.50;59.90;;;;;;6220137;28;20447;-72
2022/09/14 06:16:09;;;;;;;0.47;0.40;;;21.50;60.00;;;;;;6219952;28;20026;-73
2022/09/14 06:19:11;;;;;;;1.13;0.55;;;21.50;59.70;;;;;;6219275;28;20099;-72
2022/09/14 06:22:11;;;;;;;0.50;0.43;;;21.50;59.80;;;;;;6219980;28;20117;-72
2022/09/14 06:25:12;;;;;;;0.88;0.38;;;21.50;59.80;;;;;;6219777;28;20480;-72
2022/09/14 06:28:12;;;;;;;0.73;0.40;;;21.50;59.80;;;;;;6220037;28;20025;-72
2022/09/14 06:31:14;;;;;;;0.52;0.30;;;21.50;59.80;;;;;;6218093;28;20026;-72
2022/09/14 06:34:15;;;;;;;0.43;0.30;;;21.50;59.90;;;;;;6218678;28;20108;-72
2022/09/14 06:37:15;;;;;;;0.50;0.45;;;21.50;59.80;;;;;;6219523;28;20029;-73
2022/09/14 06:40:16;;;;;;;0.40;0.40;;;21.50;59.90;;;;;;6219795;28;20472;-72
2022/09/14 06:43:17;;;;;;;0.35;0.30;;;21.50;59.60;;;;;;6218901;28;20056;-73
2022/09/14 06:46:20;;;;;;;0.60;0.40;;;21.50;59.80;;;;;;6219555;28;20026;-72
2022/09/14 06:49:22;;;;;;;0.50;0.38;;;21.50;59.80;;;;;;6218021;28;20022;-73
2022/09/14 06:52:22;;;;;;;0.70;0.40;;;21.50;59.80;;;;;;6219741;28;20065;-72
2022/09/14 06:55:23;;;;;;;0.40;0.32;;;21.50;59.80;;;;;;6219085;28;20018;-72
2022/09/14 06:58:24;;;;;;;0.45;0.45;;;21.50;59.90;;;;;;6219198;28;20022;-72
2022/09/14 07:01:26;;;;;;;1.20;0.40;;;21.50;59.70;;;;;;6219091;28;20026;-72
2022/09/14 07:04:26;;;;;;;0.20;0.20;;;21.50;59.80;;;;;;6219111;28;20056;-72
2022/09/14 07:07:27;;;;;;;0.88;0.50;;;21.50;59.80;;;;;;6218963;28;20024;-72
2022/09/14 07:10:28;;;;;;;0.22;0.22;;;21.50;59.80;;;;;;6218881;28;20507;-72
2022/09/14 07:13:29;;;;;;;0.45;0.40;;;21.50;59.80;;;;;;6224796;28;20444;-72
2022/09/14 07:16:32;;;;;;;0.50;0.50;;;21.50;59.90;;;;;;6218736;28;20108;-72
2022/09/14 07:19:32;;;;;;;0.38;0.30;;;21.50;59.80;;;;;;6218557;28;20034;-72
2022/09/14 07:22:33;;;;;;;0.85;0.43;;;21.50;59.70;;;;;;6218501;28;20074;-72
2022/09/14 07:25:33;;;;;;;0.50;0.40;;;21.50;59.80;;;;;;6219189;28;20026;-73
2022/09/14 07:28:35;;;;;;;0.30;0.30;;;21.50;59.80;;;;;;6218874;28;20022;-72
2022/09/14 07:31:42;;;;;;;0.55;0.47;;;21.50;59.90;;;;;;6218574;28;20071;-72
2022/09/14 07:34:43;;;;;;;0.30;0.30;;;21.50;59.80;;;;;;6218773;28;20030;-72
2022/09/14 07:37:43;;;;;;;1.30;0.50;;;21.50;59.80;;;;;;6218674;28;20033;-72
2022/09/14 07:40:44;;;;;;;0.50;0.47;;;21.50;59.80;;;;;;6218617;28;20497;-72
2022/09/14 07:43:48;;;;;;;0.68;0.50;;;21.50;59.80;;;;;;6218192;28;20107;-72
2022/09/14 07:46:49;;;;;;;0.40;0.40;;;21.50;59.80;;;;;;6218297;28;20018;-72
2022/09/14 07:49:50;;;;;;;0.85;0.60;;;21.50;59.80;;;;;;6218258;28;20068;-72
2022/09/14 07:52:50;;;;;;;0.77;0.60;;;21.50;59.60;;;;;;6218484;28;20034;-72
2022/09/14 07:55:51;;;;;;;0.73;0.40;;;21.50;59.60;;;;;;6218428;28;20022;-72
2022/09/14 07:58:54;;;;;;;0.77;0.50;;;21.50;59.50;;;;;;6218208;28;20018;-72
2022/09/14 08:01:55;;;;;;;0.20;0.20;;;21.50;59.50;;;;;;6218260;28;20549;-73
2022/09/14 08:04:57;;;;;;;0.40;0.40;;;21.50;59.50;;;;;;6217810;28;20030;-72
2022/09/14 08:07:57;;;;;;;0.50;0.32;;;21.50;59.50;;;;;;6218424;28;20029;-72
2022/09/14 08:11:16;;;;;;;0.30;0.30;;;21.50;59.40;;;;;;6217865;28;20030;-72
2022/09/14 08:14:17;;;;;;;1.10;0.60;;;21.50;59.50;;;;;;6217830;28;20060;-72
2022/09/14 08:17:20;;;;;;;0.57;0.30;;;21.50;59.50;;;;;;6218194;28;20026;-72
2022/09/14 08:20:22;;;;;;;0.60;0.30;;;21.60;59.50;;;;;;6217225;28;20068;-72
2022/09/14 08:23:24;;;;;;;0.40;0.30;;;21.50;59.40;;;;;;6216815;28;20026;-72
2022/09/14 08:26:26;;;;;;;0.70;0.40;;;21.50;59.40;;;;;;6217390;28;20022;-72
2022/09/14 08:29:26;;;;;;;0.63;0.40;;;21.60;59.50;;;;;;6217569;28;20026;-72
2022/09/14 08:32:27;;;;;;;1.30;0.60;;;21.60;59.50;;;;;;6217520;28;20075;-72
2022/09/14 08:35:28;;;;;;;1.38;0.50;;;21.60;59.40;;;;;;6217675;28;20026;-72
2022/09/14 08:38:29;;;;;;;0.73;0.40;;;21.60;59.50;;;;;;6217331;28;20030;-72
2022/09/14 08:41:35;;;;;;;0.50;0.40;;;21.60;59.60;;;;;;6217834;28;20022;-72
2022/09/14 08:44:41;;;;;;;0.63;0.40;;;21.60;59.60;;;;;;6221202;28;20504;-72
2022/09/14 08:47:42;;;;;;;0.20;0.20;;;21.60;59.70;;;;;;6220591;28;20046;-72
2022/09/14 08:50:43;;;;;;;1.13;0.38;;;21.60;59.60;;;;;;6220964;28;20034;-72
2022/09/14 08:53:44;;;;;;;0.60;0.40;;;21.60;59.60;;;;;;6221410;28;20133;-72
2022/09/14 08:56:54;;;;;;;0.30;0.30;;;21.60;59.60;;;;;;6221707;28;20381;-72
2022/09/14 09:00:00;;;;;;;0.80;0.35;;;21.60;59.80;;;;;;6221541;28;20065;-72
2022/09/14 09:03:19;;;;;;;0.75;0.30;;;21.60;59.90;;;;;;6221828;28;20098;-72
2022/09/14 09:06:25;;;;;;;0.75;0.40;;;21.60;59.80;;;;;;6221671;28;20118;-72
2022/09/14 09:09:35;;;;;;;1.60;0.60;;;21.60;59.80;;;;;;6221673;28;20022;-73
2022/09/14 09:12:37;;;;;;;0.50;0.30;;;21.60;59.80;;;;;;6221690;28;20030;-72
2022/09/14 09:15:47;;;;;;;0.73;0.40;;;21.60;59.60;;;;;;6219878;28;20061;-73
2022/09/14 09:18:54;;;;;;;0.50;0.40;;;21.60;59.70;;;;;;6220697;28;20089;-72
2022/09/14 09:21:56;;;;;;;1.17;0.50;;;21.60;59.50;;;;;;6227115;28;20022;-72
2022/09/14 09:24:58;;;;;;;1.15;0.60;;;21.60;59.60;;;;;;6220002;28;20383;-72
2022/09/14 09:28:09;;;;;;;1.17;0.45;;;21.60;59.80;;;;;;6220106;28;20040;-72
2022/09/14 09:31:12;;;;;;;1.38;0.40;;;21.60;59.60;;;;;;6225744;28;20492;-72
2022/09/14 09:34:14;;;;;;;1.30;0.40;;;21.60;59.80;;;;;;6220138;28;20577;-72
2022/09/14 09:37:18;;;;;;;0.60;0.40;;;21.50;59.50;;;;;;6220576;28;20026;-73
2022/09/14 09:40:32;;;;;;;0.95;0.30;;;21.60;59.50;;;;;;6220985;28;20034;-72
2022/09/14 09:43:33;;;;;;;0.70;0.40;;;21.60;59.60;;;;;;6220505;28;20046;-73
2022/09/14 09:46:37;;;;;;;0.80;0.30;;;21.60;59.60;;;;;;6220798;28;20484;-72
2022/09/14 09:49:38;;;;;;;0.77;0.43;;;21.60;59.50;;;;;;6219562;28;20032;-72
2022/09/14 09:52:52;;;;;;;0.90;0.40;;;21.60;60.30;;;;;;6220558;28;20025;-72
2022/09/14 09:55:53;;;;;;;0.68;0.60;;;21.60;60.40;;;;;;6223919;28;20026;-72
2022/09/14 09:58:54;;;;;;;0.85;0.40;;;21.60;59.70;;;;;;6220185;28;20078;-72
2022/09/14 10:02:25;;;;;;;0.60;0.40;;;21.60;59.60;;;;;;6220512;28;20065;-71
2022/09/14 10:05:30;;;;;;;0.30;0.30;;;21.60;59.60;;;;;;6225998;28;20605;-72
2022/09/14 10:08:33;;;;;;;0.93;0.30;;;21.60;59.70;;;;;;6222756;28;20034;-72
2022/09/14 10:11:36;;;;;;;1.05;0.30;;;21.60;59.70;;;;;;6220411;28;20033;-72
2022/09/14 10:14:39;;;;;;;0.60;0.40;;;21.60;59.60;;;;;;6219299;28;20037;-72
2022/09/14 10:17:40;;;;;;;0.88;0.52;;;21.60;59.60;;;;;;6219917;28;20079;-72
2022/09/14 10:21:00;;;;;;;1.15;0.60;;;21.60;59.80;;;;;;6219808;28;20037;-72
2022/09/14 10:24:24;;;;;;;0.30;0.30;;;21.60;59.80;;;;;;6219753;28;20030;-73
2022/09/14 10:27:38;;;;;;;0.40;0.40;;;21.60;59.80;;;;;;6219884;28;20369;-72
2022/09/14 10:30:49;;;;;;;1.03;0.60;;;21.60;59.70;;;;;;6236963;27;20029;-72
2022/09/14 10:33:55;;;;;;;0.50;0.45;;;21.60;59.70;;;;;;6218683;28;20541;-72
2022/09/14 10:37:11;;;;;;;0.52;0.30;;;21.60;59.70;;;;;;6218838;28;20025;-72
2022/09/14 10:40:15;;;;;;;0.80;0.50;;;21.60;59.80;;;;;;6219225;28;20030;-72
2022/09/14 10:43:20;;;;;;;0.88;0.40;;;21.60;59.80;;;;;;6219664;28;20042;-72
2022/09/14 10:46:29;;;;;;;0.80;0.40;;;21.60;59.70;;;;;;6219382;28;20488;-72
2022/09/14 10:49:55;;;;;;;0.82;0.30;;;21.60;59.60;;;;;;6219140;28;20459;-72
2022/09/14 10:53:05;;;;;;;;;;;21.60;59.70;;;;;;6220083;28;20095;-73
2022/09/14 10:56:20;;;;;;;0.63;0.30;;;21.60;59.50;;;;;;6219373;28;20384;-72
2022/09/14 10:59:31;;;;;;;;;;;21.60;59.80;;;;;;6217878;28;20069;-72
2022/09/14 11:02:56;;;;;;;0.85;0.57;;;21.60;60.00;;;;;;6219337;28;19956;-72
2022/09/14 11:06:25;;;;;;;1.75;0.73;;;21.60;59.70;;;;;;6194159;28;20079;-72
2022/09/14 11:09:35;;;;;;;0.60;0.43;;;21.60;59.80;;;;;;6207231;28;20150;-72
2022/09/14 11:12:44;;;;;;;0.40;0.30;;;21.60;60.00;;;;;;6218985;28;20105;-72
2022/09/14 11:16:14;;;;;;;0.80;0.40;;;21.60;60.20;;;;;;6218497;28;20420;-72
2022/09/14 11:19:33;;;;;;;0.47;0.40;;;21.60;59.80;;;;;;6217418;28;20109;-72
2022/09/14 11:22:46;;;;;;;0.47;0.40;;;21.60;59.70;;;;;;6219561;28;20071;-72
2022/09/14 11:25:50;;;;;;;0.57;0.40;;;21.60;59.80;;;;;;6218906;28;20022;-72
2022/09/14 11:28:56;;;;;;;2.13;0.60;;;21.60;59.70;;;;;;6225299;28;20459;-72
2022/09/14 11:32:16;;;;;;;0.57;0.40;;;21.60;59.80;;;;;;6218792;28;20504;-72
2022/09/14 11:35:24;;;;;;;0.80;0.50;;;21.60;59.80;;;;;;6218405;28;20476;-72
2022/09/14 11:38:29;;;;;;;0.40;0.30;;;21.50;59.60;;;;;;6218410;28;20087;-72
2022/09/14 11:41:36;;;;;;;0.40;0.35;;;21.60;59.70;;;;;;6217471;28;20499;-72
2022/09/14 11:44:39;;;;;;;0.98;0.50;;;21.60;59.70;;;;;;6217926;28;20046;-72
2022/09/14 11:47:50;;;;;;;1.10;0.60;;;21.60;59.80;;;;;;6216762;28;20029;-72
2022/09/14 11:51:04;;;;;;;1.02;0.50;;;21.60;59.70;;;;;;6217771;28;20034;-72
2022/09/14 11:54:18;;;;;;;0.82;0.60;;;21.60;59.70;;;;;;6218369;28;20025;-73
2022/09/14 11:57:27;;;;;;;0.40;0.40;;;21.60;59.90;;;;;;6224779;28;20037;-72
2022/09/14 12:00:29;;;;;;;0.68;0.40;;;21.60;59.70;;;;;;6218172;28;20026;-73
2022/09/14 12:04:00;;;;;;;0.80;0.50;;;21.60;59.70;;;;;;6218630;28;20053;-72
2022/09/14 12:07:00;;;;;;;0.68;0.50;;;21.60;59.80;;;;;;6194250;28;20408;-72
2022/09/14 12:10:13;;;;;;;0.82;0.47;;;21.60;59.70;;;;;;6202683;28;20123;-72
2022/09/14 12:13:19;;;;;;;0.50;0.38;;;21.60;59.70;;;;;;6218049;28;20055;-73
2022/09/14 12:16:20;;;;;;;0.60;0.30;;;21.60;59.70;;;;;;6217108;28;20025;-72
2022/09/14 12:19:24;;;;;;;0.95;0.50;;;21.60;59.80;;;;;;6217663;28;20034;-72
2022/09/14 12:22:34;;;;;;;0.77;0.50;;;21.60;59.80;;;;;;6220861;28;20170;-72
2022/09/14 12:25:37;;;;;;;1.88;0.50;;;21.60;59.70;;;;;;6217575;28;20026;-73
2022/09/14 12:28:47;;;;;;;1.13;0.35;;;21.60;59.80;;;;;;6218937;28;20022;-73
2022/09/14 12:31:50;;;;;;;1.23;0.60;;;21.60;59.60;;;;;;6217874;28;20026;-72
2022/09/14 12:35:40;;;;;;;0.93;0.40;;;21.60;59.90;;;;;;6217872;28;20032;-72
2022/09/14 12:39:05;;;;;;;1.42;0.57;;;21.60;59.60;;;;;;6229184;28;20061;-72
2022/09/14 12:42:31;;;;;;;0.80;0.40;;;21.60;59.60;;;;;;6217686;28;20080;-72
2022/09/14 12:45:58;;;;;;;0.75;0.50;;;21.60;59.70;;;;;;6216937;28;20060;-72
2022/09/14 12:49:25;;;;;;;0.70;0.50;;;21.60;59.70;;;;;;6217786;28;20014;-72
2022/09/14 12:52:42;;;;;;;0.47;0.40;;;21.60;59.80;;;;;;6223559;28;20041;-72
2022/09/14 12:55:52;;;;;;;0.60;0.40;;;21.60;59.70;;;;;;6217313;28;20057;-72
2022/09/14 12:59:02;;;;;;;0.88;0.60;;;21.60;59.60;;;;;;6217416;28;20524;-72
2022/09/14 13:02:40;;;;;;;0.65;0.47;;;21.60;59.60;;;;;;6217433;28;20032;-72
2022/09/14 13:05:43;;;;;;;0.57;0.40;;;21.60;59.50;;;;;;6289194;28;20020;-72
2022/09/14 13:08:46;;;;;;;0.80;0.50;;;21.60;59.50;;;;;;6217244;28;20022;-72
2022/09/14 13:12:08;;;;;;;0.63;0.40;;;21.60;59.70;;;;;;6217363;28;20083;-72
2022/09/14 13:15:29;;;;;;;0.90;0.50;;;21.60;59.60;;;;;;6217286;28;20483;-72
2022/09/14 13:18:33;;;;;;;0.68;0.40;;;21.60;59.60;;;;;;6217414;28;20396;-72
2022/09/14 13:21:34;;;;;;;0.25;0.25;;;21.60;59.70;;;;;;6216928;28;20042;-72
2022/09/14 13:24:41;;;;;;;1.30;0.50;;;21.60;59.50;;;;;;6217233;28;20114;-72
2022/09/14 13:27:47;;;;;;;0.30;0.30;;;21.60;59.60;;;;;;6217220;28;20026;-72
2022/09/14 13:30:57;;;;;;;0.70;0.45;;;21.60;59.60;;;;;;6221240;28;20135;-72
2022/09/14 13:33:58;;;;;;;0.60;0.50;;;21.60;59.60;;;;;;6221157;28;20103;-72
2022/09/14 13:36:59;;;;;;;0.60;0.40;;;21.60;59.80;;;;;;6221186;28;20026;-71
2022/09/14 13:40:00;;;;;;;0.65;0.50;;;21.60;59.90;;;;;;6220793;28;20038;-72
2022/09/14 13:43:01;;;;;;;0.38;0.38;;;21.60;59.80;;;;;;6220906;28;20492;-72
2022/09/14 13:46:06;;;;;;;1.05;0.45;;;21.60;59.80;;;;;;6220285;28;20075;-72
2022/09/14 13:49:07;;;;;;;;;;;21.60;59.70;;;;;;6221429;28;20026;-73
2022/09/14 13:52:20;;;;;;;0.50;0.30;;;21.60;59.80;;;;;;6219207;28;19905;-72
2022/09/14 13:55:32;;;;;;;0.80;0.50;;;21.60;59.50;;;;;;6220795;28;20026;-72
2022/09/14 13:58:32;;;;;;;0.82;0.43;;;21.60;59.50;;;;;;6219523;28;20092;-72
2022/09/14 14:01:53;;;;;;;1.20;0.65;;;21.60;59.50;;;;;;6220302;28;20025;-72
2022/09/14 14:04:54;;;;;;;0.90;0.60;;;21.60;59.50;;;;;;6231199;28;20041;-72
2022/09/14 14:07:56;;;;;;;0.52;0.40;;;21.60;59.50;;;;;;6220472;28;20026;-72
2022/09/14 14:10:59;;;;;;;1.05;0.50;;;21.60;59.50;;;;;;6219908;28;20022;-72
2022/09/14 14:14:22;;;;;;;0.70;0.50;;;21.60;59.50;;;;;;6220270;28;20070;-72
2022/09/14 14:17:28;;;;;;;1.20;0.40;;;21.60;59.50;;;;;;6218581;28;20026;-72
2022/09/14 14:20:33;;;;;;;0.68;0.47;;;21.60;59.50;;;;;;6219880;28;20171;-72
2022/09/14 14:23:34;;;;;;;0.70;0.50;;;21.60;59.50;;;;;;6219898;28;20026;-72
2022/09/14 14:26:34;;;;;;;0.75;0.45;;;21.60;59.50;;;;;;6219585;28;20033;-72
2022/09/14 14:29:35;;;;;;;0.57;0.45;;;21.60;59.50;;;;;;6219960;28;20108;-72
2022/09/14 14:32:35;;;;;;;0.52;0.52;;;21.60;60.20;;;;;;6218152;28;20084;-72
2022/09/14 14:35:36;;;;;;;0.70;0.50;;;21.60;59.50;;;;;;6220146;28;20026;-72
2022/09/14 14:38:37;;;;;;;0.88;0.50;;;21.60;59.50;;;;;;6219787;28;20147;-72
2022/09/14 14:41:37;;;;;;;0.68;0.47;;;21.60;59.50;;;;;;6219055;28;20098;-72
2022/09/14 14:44:38;;;;;;;0.88;0.60;;;21.60;59.50;;;;;;6218559;28;20080;-72
2022/09/14 14:47:39;;;;;;;0.68;0.60;;;21.60;59.50;;;;;;6217884;28;20018;-72
2022/09/14 14:50:40;;;;;;;1.23;0.57;;;21.60;59.60;;;;;;6219388;28;20037;-72
2022/09/14 14:53:41;;;;;;;0.57;0.47;;;21.60;59.60;;;;;;6219142;28;20529;-72
2022/09/14 14:56:43;;;;;;;1.38;0.40;;;21.60;59.70;;;;;;6218708;28;20037;-72
2022/09/14 14:59:43;;;;;;;1.05;0.50;;;21.60;59.60;;;;;;6219630;28;20065;-72
2022/09/14 15:02:44;;;;;;;0.82;0.50;;;21.60;60.40;;;;;;6219398;28;20021;-72
2022/09/14 15:05:47;;;;;;;0.82;0.40;;;21.60;59.60;;;;;;6219359;28;20032;-72
2022/09/14 15:08:54;;;;;;;1.30;0.60;;;21.60;59.70;;;;;;6219269;28;20033;-72
2022/09/14 15:11:55;;;;;;;0.47;0.43;;;21.60;59.70;;;;;;6219160;28;20510;-72
2022/09/14 15:14:57;;;;;;;0.80;0.40;;;21.60;59.60;;;;;;6219302;28;20018;-73
2022/09/14 15:17:58;;;;;;;1.75;0.60;;;21.60;59.50;;;;;;6218898;28;20030;-73
2022/09/14 15:20:59;;;;;;;0.40;0.40;;;21.60;59.40;;;;;;6218958;28;20061;-72
2022/09/14 15:24:00;;;;;;;1.77;0.70;;;21.60;59.50;;;;;;6218789;28;20574;-72
2022/09/14 15:27:01;;;;;;;1.02;0.60;;;21.60;59.40;;;;;;6218673;28;20037;-72
2022/09/14 15:30:03;;;;;;;0.65;0.40;;;21.60;59.40;;;;;;6218947;28;20495;-72
2022/09/14 15:33:03;;;;;;;0.65;0.52;;;21.60;59.50;;;;;;6218841;28;20069;-72
2022/09/14 15:36:04;;;;;;;0.65;0.50;;;21.60;59.60;;;;;;6218912;28;20664;-72
2022/09/14 15:39:07;;;;;;;0.55;0.50;;;21.60;59.50;;;;;;6218379;28;20541;-72
2022/09/14 15:42:07;;;;;;;0.90;0.45;;;21.60;59.60;;;;;;6223238;28;20045;-72
2022/09/14 15:45:08;;;;;;;0.32;0.32;;;21.60;59.60;;;;;;6224145;28;20062;-72
2022/09/14 15:48:16;;;;;;;0.50;0.45;;;21.60;59.50;;;;;;6218520;28;20029;-71
2022/09/14 15:51:18;;;;;;;0.47;0.40;;;21.60;59.50;;;;;;6217248;28;20105;-72
2022/09/14 15:54:22;;;;;;;0.50;0.40;;;21.60;59.50;;;;;;6217693;28;20026;-72
2022/09/14 15:57:23;;;;;;;0.65;0.43;;;21.60;59.50;;;;;;6218369;28;20388;-72
2022/09/14 16:00:23;;;;;;;1.15;0.55;;;21.60;59.50;;;;;;6218127;28;20034;-72
2022/09/14 16:03:24;;;;;;;0.47;0.40;;;21.60;59.60;;;;;;6217213;28;20086;-72
2022/09/14 16:06:25;;;;;;;0.57;0.30;;;21.60;59.50;;;;;;6218165;28;20559;-72